sensor_id;sensor_type;location;lat;lon;timestamp;temperature;humidity
15789;DHT22;59075;50.670;6.474;2022-08-21T05:00:11;24.10;99.90
15789;DHT22;59075;50.670;6.474;2022-08-21T05:02:39;24.10;99.90
15789;DHT22;59075;50.670;6.474;2022-08-21T05:05:07;24.10;99.90
15789;DHT22;59075;50.670;6.474;2022-08-21T05:07:34;24.10;99.90
15789;DHT22;59075;50.670;6.474;2022-08-21T05:10:00;24.10;99.90
15789;DHT22;59075;50.670;6.474;2022-08-21T05:14:55;24.10;99.90
15789;DHT22;59075;50.670;6.474;2022-08-21T05:17:23;24.10;99.90
15789;DHT22;59075;50.670;6.474;2022-08-21T05:19:49;24.10;99.90
15789;DHT22;59075;50.670;6.474;2022-08-21T05:22:19;24.20;99.90
15789;DHT22;59075;50.670;6.474;2022-08-21T05:24:46;24.20;99.90
15789;DHT22;59075;50.670;6.474;2022-08-21T05:27:12;24.20;99.90
15789;DHT22;59075;50.670;6.474;2022-08-21T05:29:39;24.20;99.90
15789;DHT22;59075;50.670;6.474;2022-08-21T05:32:09;24.20;99.90
15789;DHT22;59075;50.670;6.474;2022-08-21T05:34:38;24.30;99.90
15789;DHT22;59075;50.670;6.474;2022-08-21T05:37:04;24.30;99.90
15789;DHT22;59075;50.670;6.474;2022-08-21T05:39:31;24.30;99.90
15789;DHT22;59075;50.670;6.474;2022-08-21T05:41:58;24.30;99.90
15789;DHT22;59075;50.670;6.474;2022-08-21T05:44:25;24.40;99.90
15789;DHT22;59075;50.670;6.474;2022-08-21T05:46:52;24.40;99.90
15789;DHT22;59075;50.670;6.474;2022-08-21T05:49:18;24.40;99.90
15789;DHT22;59075;50.670;6.474;2022-08-21T05:51:46;24.70;99.90
15789;DHT22;59075;50.670;6.474;2022-08-21T05:54:13;24.40;99.90
15789;DHT22;59075;50.670;6.474;2022-08-21T05:56:40;24.40;99.90
15789;DHT22;59075;50.670;6.474;2022-08-21T05:59:10;24.40;99.90
15789;DHT22;59075;50.670;6.474;2022-08-21T06:04:06;24.40;99.90
15789;DHT22;59075;50.670;6.474;2022-08-21T06:06:34;24.40;99.90
15789;DHT22;59075;50.670;6.474;2022-08-21T06:09:02;24.40;99.90
15789;DHT22;59075;50.670;6.474;2022-08-21T06:11:29;24.30;99.90
15789;DHT22;59075;50.670;6.474;2022-08-21T06:16:27;24.30;99.90
15789;DHT22;59075;50.670;6.474;2022-08-21T06:18:54;24.30;99.90
15789;DHT22;59075;50.670;6.474;2022-08-21T06:21:20;24.30;99.90
15789;DHT22;59075;50.670;6.474;2022-08-21T06:23:47;24.30;99.90
15789;DHT22;59075;50.670;6.474;2022-08-21T06:26:15;24.30;99.90
15789;DHT22;59075;50.670;6.474;2022-08-21T06:28:42;24.30;99.90
15789;DHT22;59075;50.670;6.474;2022-08-21T06:33:40;24.30;99.90
15789;DHT22;59075;50.670;6.474;2022-08-21T06:36:07;24.30;99.90
15789;DHT22;59075;50.670;6.474;2022-08-21T06:38:34;24.30;99.90
15789;DHT22;59075;50.670;6.474;2022-08-21T06:41:01;24.30;99.90
15789;DHT22;59075;50.670;6.474;2022-08-21T06:43:30;24.20;99.90
15789;DHT22;59075;50.670;6.474;2022-08-21T06:45:56;24.30;99.90
15789;DHT22;59075;50.670;6.474;2022-08-21T06:48:23;24.30;99.90
15789;DHT22;59075;50.670;6.474;2022-08-21T06:50:50;24.30;99.90
15789;DHT22;59075;50.670;6.474;2022-08-21T06:53:19;24.30;99.90
15789;DHT22;59075;50.670;6.474;2022-08-21T06:55:47;24.30;99.90
15789;DHT22;59075;50.670;6.474;2022-08-21T07:00:45;24.30;99.90
15789;DHT22;59075;50.670;6.474;2022-08-21T07:05:46;24.30;99.90
15789;DHT22;59075;50.670;6.474;2022-08-21T07:08:13;24.30;99.90
15789;DHT22;59075;50.670;6.474;2022-08-21T07:13:07;24.30;99.90
15789;DHT22;59075;50.670;6.474;2022-08-21T07:15:33;24.30;99.90
15789;DHT22;59075;50.670;6.474;2022-08-21T07:18:02;24.30;99.90
15789;DHT22;59075;50.670;6.474;2022-08-21T07:20:30;24.30;99.90
15789;DHT22;59075;50.670;6.474;2022-08-21T07:23:00;24.30;99.90
15789;DHT22;59075;50.670;6.474;2022-08-21T07:25:28;24.30;99.90
15789;DHT22;59075;50.670;6.474;2022-08-21T07:27:54;24.30;99.90
15789;DHT22;59075;50.670;6.474;2022-08-21T07:30:22;24.30;99.90
15789;DHT22;59075;50.670;6.474;2022-08-21T07:32:49;24.30;99.90
15789;DHT22;59075;50.670;6.474;2022-08-21T07:35:18;24.30;99.90
15789;DHT22;59075;50.670;6.474;2022-08-21T07:37:45;24.30;99.90
15789;DHT22;59075;50.670;6.474;2022-08-21T07:40:12;24.30;99.90
15789;DHT22;59075;50.670;6.474;2022-08-21T07:45:09;24.30;99.90
15789;DHT22;59075;50.670;6.474;2022-08-21T07:47:36;24.30;99.90
15789;DHT22;59075;50.670;6.474;2022-08-21T07:50:04;24.30;99.90
15789;DHT22;59075;50.670;6.474;2022-08-21T07:52:33;24.30;99.90
15789;DHT22;59075;50.670;6.474;2022-08-21T07:55:00;24.30;99.90
15789;DHT22;59075;50.670;6.474;2022-08-21T07:57:27;24.30;99.90
15789;DHT22;59075;50.670;6.474;2022-08-21T07:59:54;24.30;99.90
15789;DHT22;59075;50.670;6.474;2022-08-21T08:02:24;24.40;99.90
15789;DHT22;59075;50.670;6.474;2022-08-21T08:04:51;24.40;99.90
15789;DHT22;59075;50.670;6.474;2022-08-21T08:07:18;24.40;99.90
15789;DHT22;59075;50.670;6.474;2022-08-21T08:09:46;24.40;99.90
15789;DHT22;59075;50.670;6.474;2022-08-21T08:12:13;24.40;99.90
15789;DHT22;59075;50.670;6.474;2022-08-21T08:14:40;24.40;99.90
15789;DHT22;59075;50.670;6.474;2022-08-21T08:17:06;24.40;99.90
15789;DHT22;59075;50.670;6.474;2022-08-21T08:22:00;24.50;99.90
15789;DHT22;59075;50.670;6.474;2022-08-21T08:24:27;24.40;99.90
15789;DHT22;59075;50.670;6.474;2022-08-21T08:26:55;24.50;99.90
15789;DHT22;59075;50.670;6.474;2022-08-21T08:31:50;24.50;99.90
15789;DHT22;59075;50.670;6.474;2022-08-21T08:34:16;24.50;99.90
15789;DHT22;59075;50.670;6.474;2022-08-21T08:36:44;24.50;99.90
15789;DHT22;59075;50.670;6.474;2022-08-21T08:39:11;24.50;99.90
15789;DHT22;59075;50.670;6.474;2022-08-21T08:41:38;24.50;99.90
15789;DHT22;59075;50.670;6.474;2022-08-21T08:44:07;24.50;99.90
15789;DHT22;59075;50.670;6.474;2022-08-21T08:46:38;24.50;99.90
15789;DHT22;59075;50.670;6.474;2022-08-21T08:49:09;24.50;99.90
15789;DHT22;59075;50.670;6.474;2022-08-21T08:51:43;24.50;99.90
15789;DHT22;59075;50.670;6.474;2022-08-21T08:54:14;24.50;99.90
15789;DHT22;59075;50.670;6.474;2022-08-21T08:56:42;24.60;99.90
15789;DHT22;59075;50.670;6.474;2022-08-21T08:59:15;24.50;99.90
15789;DHT22;59075;50.670;6.474;2022-08-21T09:01:44;24.50;99.90
15789;DHT22;59075;50.670;6.474;2022-08-21T09:04:12;24.60;99.90
15789;DHT22;59075;50.670;6.474;2022-08-21T09:09:27;24.60;99.90
15789;DHT22;59075;50.670;6.474;2022-08-21T09:12:02;24.60;99.90
15789;DHT22;59075;50.670;6.474;2022-08-21T09:14:41;24.60;99.90
15789;DHT22;59075;50.670;6.474;2022-08-21T09:17:19;24.60;99.90
15789;DHT22;59075;50.670;6.474;2022-08-21T09:22:26;24.70;99.90
15789;DHT22;59075;50.670;6.474;2022-08-21T09:25:02;24.70;99.90
15789;DHT22;59075;50.670;6.474;2022-08-21T09:27:33;24.60;99.90
15789;DHT22;59075;50.670;6.474;2022-08-21T09:30:02;24.70;99.90
15789;DHT22;59075;50.670;6.474;2022-08-21T09:32:32;24.70;99.90
15789;DHT22;59075;50.670;6.474;2022-08-21T09:35:03;24.70;99.90
15789;DHT22;59075;50.670;6.474;2022-08-21T09:40:00;24.70;99.90
15789;DHT22;59075;50.670;6.474;2022-08-21T09:42:29;24.70;99.90
15789;DHT22;59075;50.670;6.474;2022-08-21T09:45:14;24.70;99.90
15789;DHT22;59075;50.670;6.474;2022-08-21T09:47:42;24.70;99.90
15789;DHT22;59075;50.670;6.474;2022-08-21T09:50:12;24.70;99.90
15789;DHT22;59075;50.670;6.474;2022-08-21T09:52:48;24.70;99.90
15789;DHT22;59075;50.670;6.474;2022-08-21T09:55:19;24.70;99.90
15789;DHT22;59075;50.670;6.474;2022-08-21T09:58:04;24.70;99.90
15789;DHT22;59075;50.670;6.474;2022-08-21T10:00:33;24.70;99.90
15789;DHT22;59075;50.670;6.474;2022-08-21T10:03:18;24.80;99.90
15789;DHT22;59075;50.670;6.474;2022-08-21T10:05:54;24.80;99.90
15789;DHT22;59075;50.670;6.474;2022-08-21T10:08:22;24.80;99.90
15789;DHT22;59075;50.670;6.474;2022-08-21T10:10:53;24.80;99.90
15789;DHT22;59075;50.670;6.474;2022-08-21T10:13:24;24.80;99.90
15789;DHT22;59075;50.670;6.474;2022-08-21T10:16:01;24.90;99.90
15789;DHT22;59075;50.670;6.474;2022-08-21T10:18:36;24.90;99.90
15789;DHT22;59075;50.670;6.474;2022-08-21T10:21:12;24.90;99.90
15789;DHT22;59075;50.670;6.474;2022-08-21T10:23:51;24.90;99.90
15789;DHT22;59075;50.670;6.474;2022-08-21T10:26:34;24.90;99.90
15789;DHT22;59075;50.670;6.474;2022-08-21T10:29:08;24.90;99.90
15789;DHT22;59075;50.670;6.474;2022-08-21T10:31:49;24.90;99.90
15789;DHT22;59075;50.670;6.474;2022-08-21T10:34:28;25.00;99.90
15789;DHT22;59075;50.670;6.474;2022-08-21T10:37:07;24.90;99.90
15789;DHT22;59075;50.670;6.474;2022-08-21T10:39:44;24.90;99.90
15789;DHT22;59075;50.670;6.474;2022-08-21T10:42:25;25.00;99.90
15789;DHT22;59075;50.670;6.474;2022-08-21T10:47:49;25.00;99.90
15789;DHT22;59075;50.670;6.474;2022-08-21T10:50:29;25.00;99.90
15789;DHT22;59075;50.670;6.474;2022-08-21T10:53:06;25.00;99.90
15789;DHT22;59075;50.670;6.474;2022-08-21T10:55:38;25.00;99.90
15789;DHT22;59075;50.670;6.474;2022-08-21T10:58:11;25.00;99.90
15789;DHT22;59075;50.670;6.474;2022-08-21T11:00:41;25.00;99.90
15789;DHT22;59075;50.670;6.474;2022-08-21T11:03:14;25.00;99.90
15789;DHT22;59075;50.670;6.474;2022-08-21T11:05:46;25.10;99.90
15789;DHT22;59075;50.670;6.474;2022-08-21T11:08:17;25.00;99.90
15789;DHT22;59075;50.670;6.474;2022-08-21T11:10:48;25.10;99.90
15789;DHT22;59075;50.670;6.474;2022-08-21T11:13:21;25.10;99.90
15789;DHT22;59075;50.670;6.474;2022-08-21T11:18:26;25.10;99.90
15789;DHT22;59075;50.670;6.474;2022-08-21T11:21:01;25.10;99.90
15789;DHT22;59075;50.670;6.474;2022-08-21T11:23:33;25.10;99.90
15789;DHT22;59075;50.670;6.474;2022-08-21T11:26:07;25.20;99.90
15789;DHT22;59075;50.670;6.474;2022-08-21T11:28:40;25.20;99.90
15789;DHT22;59075;50.670;6.474;2022-08-21T11:33:52;25.20;99.90
15789;DHT22;59075;50.670;6.474;2022-08-21T11:36:26;25.20;99.90
15789;DHT22;59075;50.670;6.474;2022-08-21T11:39:00;25.20;99.90
15789;DHT22;59075;50.670;6.474;2022-08-21T11:41:30;25.20;99.90
15789;DHT22;59075;50.670;6.474;2022-08-21T11:44:05;25.20;99.90
15789;DHT22;59075;50.670;6.474;2022-08-21T11:46:39;25.20;99.90
15789;DHT22;59075;50.670;6.474;2022-08-21T11:49:34;25.30;99.90
15789;DHT22;59075;50.670;6.474;2022-08-21T11:52:10;25.30;99.90
15789;DHT22;59075;50.670;6.474;2022-08-21T11:54:43;25.30;99.90
15789;DHT22;59075;50.670;6.474;2022-08-21T11:59:46;25.30;99.90
15789;DHT22;59075;50.670;6.474;2022-08-21T12:02:18;25.30;99.90
15789;DHT22;59075;50.670;6.474;2022-08-21T12:04:51;25.30;99.90
15789;DHT22;59075;50.670;6.474;2022-08-21T12:07:30;25.30;99.90
15789;DHT22;59075;50.670;6.474;2022-08-21T12:09:58;25.30;99.90
15789;DHT22;59075;50.670;6.474;2022-08-21T12:12:27;25.30;99.90
15789;DHT22;59075;50.670;6.474;2022-08-21T12:15:23;25.40;99.90
15789;DHT22;59075;50.670;6.474;2022-08-21T12:17:59;25.40;99.90
15789;DHT22;59075;50.670;6.474;2022-08-21T12:20:38;25.40;99.90
15789;DHT22;59075;50.670;6.474;2022-08-21T12:23:16;25.40;99.90
15789;DHT22;59075;50.670;6.474;2022-08-21T12:25:46;25.40;99.90
15789;DHT22;59075;50.670;6.474;2022-08-21T12:28:16;25.40;99.90
15789;DHT22;59075;50.670;6.474;2022-08-21T12:33:21;25.40;99.90
15789;DHT22;59075;50.670;6.474;2022-08-21T12:35:51;25.40;99.90
15789;DHT22;59075;50.670;6.474;2022-08-21T12:38:21;25.40;99.90
15789;DHT22;59075;50.670;6.474;2022-08-21T12:40:53;25.40;99.90
15789;DHT22;59075;50.670;6.474;2022-08-21T12:43:25;25.40;99.90
15789;DHT22;59075;50.670;6.474;2022-08-21T12:45:53;25.40;99.90
15789;DHT22;59075;50.670;6.474;2022-08-21T12:48:25;25.40;99.90
15789;DHT22;59075;50.670;6.474;2022-08-21T12:50:55;25.50;99.90
15789;DHT22;59075;50.670;6.474;2022-08-21T12:53:28;25.50;99.90
15789;DHT22;59075;50.670;6.474;2022-08-21T12:55:56;25.50;99.90
15789;DHT22;59075;50.670;6.474;2022-08-21T13:00:56;25.50;99.90
15789;DHT22;59075;50.670;6.474;2022-08-21T13:03:26;25.50;99.90
15789;DHT22;59075;50.670;6.474;2022-08-21T13:05:55;25.50;99.90
15789;DHT22;59075;50.670;6.474;2022-08-21T13:08:23;25.50;99.90
15789;DHT22;59075;50.670;6.474;2022-08-21T13:13:25;25.50;99.90
15789;DHT22;59075;50.670;6.474;2022-08-21T13:15:57;25.50;99.90
15789;DHT22;59075;50.670;6.474;2022-08-21T13:18:27;25.50;99.90
15789;DHT22;59075;50.670;6.474;2022-08-21T13:21:05;25.50;99.90
15789;DHT22;59075;50.670;6.474;2022-08-21T13:23:33;25.50;99.90
15789;DHT22;59075;50.670;6.474;2022-08-21T13:26:00;25.50;99.90
15789;DHT22;59075;50.670;6.474;2022-08-21T13:28:34;25.50;99.90
15789;DHT22;59075;50.670;6.474;2022-08-21T13:31:07;25.50;99.90
15789;DHT22;59075;50.670;6.474;2022-08-21T13:33:36;25.50;99.90
15789;DHT22;59075;50.670;6.474;2022-08-21T13:36:10;25.50;99.90
15789;DHT22;59075;50.670;6.474;2022-08-21T13:38:41;25.50;99.90
15789;DHT22;59075;50.670;6.474;2022-08-21T13:41:20;25.50;99.90
15789;DHT22;59075;50.670;6.474;2022-08-21T13:43:50;25.50;99.90
15789;DHT22;59075;50.670;6.474;2022-08-21T13:46:18;25.50;99.90
15789;DHT22;59075;50.670;6.474;2022-08-21T13:48:47;25.50;99.90
15789;DHT22;59075;50.670;6.474;2022-08-21T13:51:15;25.50;99.90
15789;DHT22;59075;50.670;6.474;2022-08-21T13:53:46;25.60;99.90
15789;DHT22;59075;50.670;6.474;2022-08-21T13:56:22;25.60;99.90
15789;DHT22;59075;50.670;6.474;2022-08-21T13:58:50;25.60;99.90
15789;DHT22;59075;50.670;6.474;2022-08-21T14:01:22;25.60;99.90
15789;DHT22;59075;50.670;6.474;2022-08-21T14:03:52;25.60;99.90
15789;DHT22;59075;50.670;6.474;2022-08-21T14:06:24;25.60;99.90
15789;DHT22;59075;50.670;6.474;2022-08-21T14:08:54;25.60;99.90
15789;DHT22;59075;50.670;6.474;2022-08-21T14:11:21;25.60;99.90
15789;DHT22;59075;50.670;6.474;2022-08-21T14:13:49;25.60;99.90
15789;DHT22;59075;50.670;6.474;2022-08-21T14:16:19;25.60;99.90
15789;DHT22;59075;50.670;6.474;2022-08-21T14:18:50;25.60;99.90
15789;DHT22;59075;50.670;6.474;2022-08-21T14:26:28;25.60;99.90
15789;DHT22;59075;50.670;6.474;2022-08-21T14:28:58;25.70;99.90
15789;DHT22;59075;50.670;6.474;2022-08-21T14:31:30;25.70;99.90
15789;DHT22;59075;50.670;6.474;2022-08-21T14:33:59;25.70;99.90
15789;DHT22;59075;50.670;6.474;2022-08-21T14:36:26;25.70;99.90
15789;DHT22;59075;50.670;6.474;2022-08-21T14:38:53;25.70;99.90
15789;DHT22;59075;50.670;6.474;2022-08-21T14:41:24;25.70;99.90
15789;DHT22;59075;50.670;6.474;2022-08-21T14:43:53;25.70;99.90
15789;DHT22;59075;50.670;6.474;2022-08-21T14:46:23;25.70;99.90
15789;DHT22;59075;50.670;6.474;2022-08-21T14:48:50;25.70;99.90
15789;DHT22;59075;50.670;6.474;2022-08-21T14:51:17;25.70;99.90
15789;DHT22;59075;50.670;6.474;2022-08-21T14:53:44;25.70;99.90
15789;DHT22;59075;50.670;6.474;2022-08-21T14:56:12;25.70;99.90
15789;DHT22;59075;50.670;6.474;2022-08-21T14:58:41;25.70;99.90
15789;DHT22;59075;50.670;6.474;2022-08-21T15:01:10;25.70;99.90
15789;DHT22;59075;50.670;6.474;2022-08-21T15:03:38;25.70;99.90
15789;DHT22;59075;50.670;6.474;2022-08-21T15:06:06;25.70;99.90
15789;DHT22;59075;50.670;6.474;2022-08-21T15:08:33;25.70;99.90
15789;DHT22;59075;50.670;6.474;2022-08-21T15:11:00;25.80;99.90
15789;DHT22;59075;50.670;6.474;2022-08-21T15:13:28;25.80;99.90
15789;DHT22;59075;50.670;6.474;2022-08-21T15:15:57;25.80;99.90
15789;DHT22;59075;50.670;6.474;2022-08-21T15:18:30;25.80;99.90
15789;DHT22;59075;50.670;6.474;2022-08-21T15:20:57;25.80;99.90
15789;DHT22;59075;50.670;6.474;2022-08-21T15:23:24;25.80;99.90
15789;DHT22;59075;50.670;6.474;2022-08-21T15:28:19;25.80;99.90
15789;DHT22;59075;50.670;6.474;2022-08-21T15:33:16;25.80;99.90
15789;DHT22;59075;50.670;6.474;2022-08-21T15:35:43;25.70;99.90
15789;DHT22;59075;50.670;6.474;2022-08-21T15:38:12;25.60;99.90
15789;DHT22;59075;50.670;6.474;2022-08-21T15:40:40;25.70;99.90
15789;DHT22;59075;50.670;6.474;2022-08-21T15:43:23;25.70;99.90
15789;DHT22;59075;50.670;6.474;2022-08-21T15:45:50;25.70;99.90
15789;DHT22;59075;50.670;6.474;2022-08-21T15:48:18;25.70;99.90
15789;DHT22;59075;50.670;6.474;2022-08-21T15:50:45;25.70;99.90
15789;DHT22;59075;50.670;6.474;2022-08-21T15:53:12;25.70;99.90
15789;DHT22;59075;50.670;6.474;2022-08-21T15:55:40;25.70;99.90
15789;DHT22;59075;50.670;6.474;2022-08-21T16:00:35;25.70;99.90
15789;DHT22;59075;50.670;6.474;2022-08-21T16:03:04;25.70;99.90
15789;DHT22;59075;50.670;6.474;2022-08-21T16:05:33;25.60;99.90
15789;DHT22;59075;50.670;6.474;2022-08-21T16:07:59;25.60;99.90
15789;DHT22;59075;50.670;6.474;2022-08-21T16:10:26;25.60;99.90
15789;DHT22;59075;50.670;6.474;2022-08-21T16:12:56;25.50;99.90
15789;DHT22;59075;50.670;6.474;2022-08-21T16:15:24;25.60;99.90
15789;DHT22;59075;50.670;6.474;2022-08-21T16:17:52;25.60;99.90
15789;DHT22;59075;50.670;6.474;2022-08-21T16:20:21;25.60;99.90
15789;DHT22;59075;50.670;6.474;2022-08-21T16:22:51;25.60;99.90
15789;DHT22;59075;50.670;6.474;2022-08-21T16:25:18;25.60;99.90
15789;DHT22;59075;50.670;6.474;2022-08-21T16:27:48;25.60;99.90
15789;DHT22;59075;50.670;6.474;2022-08-21T16:30:17;25.60;99.90
15789;DHT22;59075;50.670;6.474;2022-08-21T16:32:44;25.70;99.90
15789;DHT22;59075;50.670;6.474;2022-08-21T16:35:14;25.60;99.90
15789;DHT22;59075;50.670;6.474;2022-08-21T16:37:41;25.60;99.90
15789;DHT22;59075;50.670;6.474;2022-08-21T16:40:10;25.70;99.90
15789;DHT22;59075;50.670;6.474;2022-08-21T16:42:39;25.60;99.90
15789;DHT22;59075;50.670;6.474;2022-08-21T16:45:07;25.60;99.90
15789;DHT22;59075;50.670;6.474;2022-08-21T16:47:34;25.60;99.90
15789;DHT22;59075;50.670;6.474;2022-08-21T16:50:01;25.60;99.90
15789;DHT22;59075;50.670;6.474;2022-08-21T16:52:29;25.60;99.90
15789;DHT22;59075;50.670;6.474;2022-08-21T16:54:56;25.60;99.90
15789;DHT22;59075;50.670;6.474;2022-08-21T16:59:52;25.60;99.90
15789;DHT22;59075;50.670;6.474;2022-08-21T17:02:27;25.60;99.90
15789;DHT22;59075;50.670;6.474;2022-08-21T17:04:54;25.60;99.90
15789;DHT22;59075;50.670;6.474;2022-08-21T17:07:21;25.60;99.90
15789;DHT22;59075;50.670;6.474;2022-08-21T17:09:48;25.60;99.90
15789;DHT22;59075;50.670;6.474;2022-08-21T17:12:15;25.60;99.90
15789;DHT22;59075;50.670;6.474;2022-08-21T17:14:43;25.60;99.90
15789;DHT22;59075;50.670;6.474;2022-08-21T17:19:38;25.60;99.90
15789;DHT22;59075;50.670;6.474;2022-08-21T17:22:05;25.50;99.90
15789;DHT22;59075;50.670;6.474;2022-08-21T17:24:32;25.60;99.90
15789;DHT22;59075;50.670;6.474;2022-08-21T17:27:00;25.50;99.90
15789;DHT22;59075;50.670;6.474;2022-08-21T17:29:31;25.50;99.90
15789;DHT22;59075;50.670;6.474;2022-08-21T17:32:02;25.50;99.90
15789;DHT22;59075;50.670;6.474;2022-08-21T17:34:29;25.50;99.90
15789;DHT22;59075;50.670;6.474;2022-08-21T17:36:56;25.50;99.90
15789;DHT22;59075;50.670;6.474;2022-08-21T17:39:22;25.50;99.90
15789;DHT22;59075;50.670;6.474;2022-08-21T17:41:49;25.50;99.90
15789;DHT22;59075;50.670;6.474;2022-08-21T17:44:18;25.50;99.90
15789;DHT22;59075;50.670;6.474;2022-08-21T17:46:45;25.50;99.90
15789;DHT22;59075;50.670;6.474;2022-08-21T17:56:40;25.50;99.90
15789;DHT22;59075;50.670;6.474;2022-08-21T18:01:37;25.50;99.90
15789;DHT22;59075;50.670;6.474;2022-08-21T18:04:04;25.40;99.90
15789;DHT22;59075;50.670;6.474;2022-08-21T18:06:32;25.50;99.90
15789;DHT22;59075;50.670;6.474;2022-08-21T18:08:59;25.50;99.90
15789;DHT22;59075;50.670;6.474;2022-08-21T18:11:28;25.50;99.90
15789;DHT22;59075;50.670;6.474;2022-08-21T18:13:58;25.40;99.90
15789;DHT22;59075;50.670;6.474;2022-08-21T18:16:26;25.40;99.90
15789;DHT22;59075;50.670;6.474;2022-08-21T18:18:54;25.40;99.90
15789;DHT22;59075;50.670;6.474;2022-08-21T18:21:23;25.40;99.90
15789;DHT22;59075;50.670;6.474;2022-08-21T18:23:52;25.40;99.90
15789;DHT22;59075;50.670;6.474;2022-08-21T18:26:24;25.40;99.90
15789;DHT22;59075;50.670;6.474;2022-08-21T18:28:52;25.40;99.90
15789;DHT22;59075;50.670;6.474;2022-08-21T18:31:19;25.30;99.90
15789;DHT22;59075;50.670;6.474;2022-08-21T18:33:46;25.40;99.90
15789;DHT22;59075;50.670;6.474;2022-08-21T18:38:40;25.40;99.90
15789;DHT22;59075;50.670;6.474;2022-08-21T18:41:08;25.30;99.90
15789;DHT22;59075;50.670;6.474;2022-08-21T18:43:36;25.30;99.90
15789;DHT22;59075;50.670;6.474;2022-08-21T18:46:03;25.30;99.90
15789;DHT22;59075;50.670;6.474;2022-08-21T18:48:30;25.30;99.90
15789;DHT22;59075;50.670;6.474;2022-08-21T18:50:57;25.30;99.90
15789;DHT22;59075;50.670;6.474;2022-08-21T18:53:24;25.30;99.90
15789;DHT22;59075;50.670;6.474;2022-08-21T18:55:50;25.30;99.90
15789;DHT22;59075;50.670;6.474;2022-08-21T18:58:18;25.30;99.90
15789;DHT22;59075;50.670;6.474;2022-08-21T19:00:48;25.30;99.90
15789;DHT22;59075;50.670;6.474;2022-08-21T19:03:19;25.30;99.90
15789;DHT22;59075;50.670;6.474;2022-08-21T19:05:47;25.30;99.90
15789;DHT22;59075;50.670;6.474;2022-08-21T19:10:43;25.30;99.90
15789;DHT22;59075;50.670;6.474;2022-08-21T19:13:12;25.20;99.90
15789;DHT22;59075;50.670;6.474;2022-08-21T19:15:42;25.30;99.90
15789;DHT22;59075;50.670;6.474;2022-08-21T19:18:12;25.20;99.90
15789;DHT22;59075;50.670;6.474;2022-08-21T19:20:40;25.30;99.90
15789;DHT22;59075;50.670;6.474;2022-08-21T19:23:09;25.20;99.90
15789;DHT22;59075;50.670;6.474;2022-08-21T19:25:37;25.20;99.90
15789;DHT22;59075;50.670;6.474;2022-08-21T19:28:08;25.20;99.90
15789;DHT22;59075;50.670;6.474;2022-08-21T19:30:36;25.20;99.90
15789;DHT22;59075;50.670;6.474;2022-08-21T19:33:04;25.20;99.90
15789;DHT22;59075;50.670;6.474;2022-08-21T19:35:31;25.20;99.90
15789;DHT22;59075;50.670;6.474;2022-08-21T19:37:58;25.20;99.90
15789;DHT22;59075;50.670;6.474;2022-08-21T19:40:25;25.20;99.90
15789;DHT22;59075;50.670;6.474;2022-08-21T19:42:52;25.20;99.90
15789;DHT22;59075;50.670;6.474;2022-08-21T19:45:19;25.20;99.90
15789;DHT22;59075;50.670;6.474;2022-08-21T19:47:47;25.20;99.90
15789;DHT22;59075;50.670;6.474;2022-08-21T19:50:16;25.20;99.90
15789;DHT22;59075;50.670;6.474;2022-08-21T19:52:43;25.20;99.90
15789;DHT22;59075;50.670;6.474;2022-08-21T19:55:10;25.20;99.90
15789;DHT22;59075;50.670;6.474;2022-08-21T20:00:06;25.20;99.90
15789;DHT22;59075;50.670;6.474;2022-08-21T20:02:34;25.20;99.90
15789;DHT22;59075;50.670;6.474;2022-08-21T20:05:01;25.20;99.90
15789;DHT22;59075;50.670;6.474;2022-08-21T20:07:29;25.20;99.90
15789;DHT22;59075;50.670;6.474;2022-08-21T20:09:57;25.20;99.90
15789;DHT22;59075;50.670;6.474;2022-08-21T20:12:24;25.20;99.90
15789;DHT22;59075;50.670;6.474;2022-08-21T20:14:51;25.20;99.90
15789;DHT22;59075;50.670;6.474;2022-08-21T20:19:47;25.20;99.90
15789;DHT22;59075;50.670;6.474;2022-08-21T20:22:14;25.10;99.90
15789;DHT22;59075;50.670;6.474;2022-08-21T20:24:43;25.10;99.90
15789;DHT22;59075;50.670;6.474;2022-08-21T20:27:12;25.20;99.90
15789;DHT22;59075;50.670;6.474;2022-08-21T20:29:40;25.20;99.90
15789;DHT22;59075;50.670;6.474;2022-08-21T20:32:08;25.20;99.90
15789;DHT22;59075;50.670;6.474;2022-08-21T20:34:35;25.10;99.90
15789;DHT22;59075;50.670;6.474;2022-08-21T20:37:02;25.20;99.90
15789;DHT22;59075;50.670;6.474;2022-08-21T20:39:28;25.10;99.90
15789;DHT22;59075;50.670;6.474;2022-08-21T20:41:57;25.10;99.90
15789;DHT22;59075;50.670;6.474;2022-08-21T20:44:27;25.10;99.90
15789;DHT22;59075;50.670;6.474;2022-08-21T20:46:54;25.10;99.90
15789;DHT22;59075;50.670;6.474;2022-08-21T20:49:30;25.10;99.90
15789;DHT22;59075;50.670;6.474;2022-08-21T20:51:58;25.10;99.90
15789;DHT22;59075;50.670;6.474;2022-08-21T20:54:29;25.10;99.90
15789;DHT22;59075;50.670;6.474;2022-08-21T20:57:03;25.10;99.90
15789;DHT22;59075;50.670;6.474;2022-08-21T20:59:42;25.10;99.90
